sensor_id;sensor_type;location;lat;lon;timestamp;P1;durP1;ratioP1;P2;durP2;ratioP2
52266;SDS011;38223;50.940;4.034;2022-08-25T00:02:23;5.90;;;5.35;;
52266;SDS011;38223;50.940;4.034;2022-08-25T00:04:58;6.28;;;5.78;;
52266;SDS011;38223;50.940;4.034;2022-08-25T00:07:30;7.60;;;4.92;;
52266;SDS011;38223;50.940;4.034;2022-08-25T00:10:01;8.15;;;5.70;;
52266;SDS011;38223;50.940;4.034;2022-08-25T00:12:34;5.50;;;5.00;;
52266;SDS011;38223;50.940;4.034;2022-08-25T00:15:06;7.33;;;5.20;;
52266;SDS011;38223;50.940;4.034;2022-08-25T00:17:41;6.90;;;5.70;;
52266;SDS011;38223;50.940;4.034;2022-08-25T00:20:11;7.33;;;5.70;;
52266;SDS011;38223;50.940;4.034;2022-08-25T00:22:46;5.85;;;5.35;;
52266;SDS011;38223;50.940;4.034;2022-08-25T00:25:18;6.55;;;5.85;;
52266;SDS011;38223;50.940;4.034;2022-08-25T00:27:53;7.03;;;5.65;;
52266;SDS011;38223;50.940;4.034;2022-08-25T00:30:23;7.83;;;5.87;;
52266;SDS011;38223;50.940;4.034;2022-08-25T00:32:57;6.15;;;5.65;;
52266;SDS011;38223;50.940;4.034;2022-08-25T00:35:25;9.18;;;6.25;;
52266;SDS011;38223;50.940;4.034;2022-08-25T00:37:59;6.25;;;5.70;;
52266;SDS011;38223;50.940;4.034;2022-08-25T00:40:30;6.97;;;6.33;;
52266;SDS011;38223;50.940;4.034;2022-08-25T00:43:04;7.87;;;7.17;;
52266;SDS011;38223;50.940;4.034;2022-08-25T00:45:35;9.40;;;7.10;;
52266;SDS011;38223;50.940;4.034;2022-08-25T00:48:12;6.97;;;6.28;;
52266;SDS011;38223;50.940;4.034;2022-08-25T00:50:42;7.92;;;7.15;;
52266;SDS011;38223;50.940;4.034;2022-08-25T00:53:16;7.53;;;6.80;;
52266;SDS011;38223;50.940;4.034;2022-08-25T00:55:45;7.75;;;6.95;;
52266;SDS011;38223;50.940;4.034;2022-08-25T00:58:26;10.25;;;7.28;;
52266;SDS011;38223;50.940;4.034;2022-08-25T01:00:53;9.83;;;6.60;;
52266;SDS011;38223;50.940;4.034;2022-08-25T01:03:28;7.83;;;6.90;;
52266;SDS011;38223;50.940;4.034;2022-08-25T01:06:03;8.48;;;7.33;;
52266;SDS011;38223;50.940;4.034;2022-08-25T01:08:34;7.60;;;6.90;;
52266;SDS011;38223;50.940;4.034;2022-08-25T01:11:06;7.28;;;6.55;;
52266;SDS011;38223;50.940;4.034;2022-08-25T01:13:40;8.08;;;7.17;;
52266;SDS011;38223;50.940;4.034;2022-08-25T01:16:15;8.40;;;7.60;;
52266;SDS011;38223;50.940;4.034;2022-08-25T01:18:51;7.62;;;6.95;;
52266;SDS011;38223;50.940;4.034;2022-08-25T01:21:29;9.13;;;6.83;;
52266;SDS011;38223;50.940;4.034;2022-08-25T01:24:04;7.87;;;6.92;;
52266;SDS011;38223;50.940;4.034;2022-08-25T01:26:54;7.35;;;6.67;;
52266;SDS011;38223;50.940;4.034;2022-08-25T01:29:26;7.78;;;6.58;;
52266;SDS011;38223;50.940;4.034;2022-08-25T01:32:02;7.58;;;6.65;;
52266;SDS011;38223;50.940;4.034;2022-08-25T01:34:39;9.20;;;7.22;;
52266;SDS011;38223;50.940;4.034;2022-08-25T01:37:13;10.68;;;7.55;;
52266;SDS011;38223;50.940;4.034;2022-08-25T01:39:50;7.80;;;6.90;;
52266;SDS011;38223;50.940;4.034;2022-08-25T01:42:32;8.90;;;7.17;;
52266;SDS011;38223;50.940;4.034;2022-08-25T01:45:11;7.35;;;6.65;;
52266;SDS011;38223;50.940;4.034;2022-08-25T01:47:45;7.78;;;7.05;;
52266;SDS011;38223;50.940;4.034;2022-08-25T01:50:19;7.53;;;6.83;;
52266;SDS011;38223;50.940;4.034;2022-08-25T01:52:54;7.45;;;6.78;;
52266;SDS011;38223;50.940;4.034;2022-08-25T01:55:27;10.08;;;6.87;;
52266;SDS011;38223;50.940;4.034;2022-08-25T01:58:01;10.48;;;7.10;;
52266;SDS011;38223;50.940;4.034;2022-08-25T02:00:32;7.30;;;6.67;;
52266;SDS011;38223;50.940;4.034;2022-08-25T02:03:04;8.10;;;6.62;;
52266;SDS011;38223;50.940;4.034;2022-08-25T02:05:38;7.47;;;6.72;;
52266;SDS011;38223;50.940;4.034;2022-08-25T02:08:10;7.00;;;6.20;;
52266;SDS011;38223;50.940;4.034;2022-08-25T02:10:44;7.22;;;6.50;;
52266;SDS011;38223;50.940;4.034;2022-08-25T02:13:18;8.65;;;6.50;;
52266;SDS011;38223;50.940;4.034;2022-08-25T02:15:51;7.33;;;6.70;;
52266;SDS011;38223;50.940;4.034;2022-08-25T02:18:24;7.12;;;6.53;;
52266;SDS011;38223;50.940;4.034;2022-08-25T02:20:57;6.75;;;6.22;;
52266;SDS011;38223;50.940;4.034;2022-08-25T02:23:32;6.53;;;5.75;;
52266;SDS011;38223;50.940;4.034;2022-08-25T02:26:06;9.15;;;6.08;;
52266;SDS011;38223;50.940;4.034;2022-08-25T02:28:37;6.53;;;5.95;;
52266;SDS011;38223;50.940;4.034;2022-08-25T02:31:11;6.42;;;5.92;;
52266;SDS011;38223;50.940;4.034;2022-08-25T02:33:43;6.80;;;5.70;;
52266;SDS011;38223;50.940;4.034;2022-08-25T02:36:18;5.47;;;5.08;;
52266;SDS011;38223;50.940;4.034;2022-08-25T02:38:50;8.05;;;5.62;;
52266;SDS011;38223;50.940;4.034;2022-08-25T02:41:25;5.85;;;5.37;;
52266;SDS011;38223;50.940;4.034;2022-08-25T02:43:55;8.38;;;6.28;;
52266;SDS011;38223;50.940;4.034;2022-08-25T02:46:34;8.08;;;5.97;;
52266;SDS011;38223;50.940;4.034;2022-08-25T02:49:05;6.85;;;6.30;;
52266;SDS011;38223;50.940;4.034;2022-08-25T02:51:41;6.60;;;6.00;;
52266;SDS011;38223;50.940;4.034;2022-08-25T02:54:18;6.58;;;6.08;;
52266;SDS011;38223;50.940;4.034;2022-08-25T02:56:50;6.97;;;6.42;;
52266;SDS011;38223;50.940;4.034;2022-08-25T02:59:26;7.05;;;6.45;;
52266;SDS011;38223;50.940;4.034;2022-08-25T03:01:56;8.70;;;6.67;;
52266;SDS011;38223;50.940;4.034;2022-08-25T03:04:33;6.90;;;6.45;;
52266;SDS011;38223;50.940;4.034;2022-08-25T03:07:05;9.93;;;6.70;;
52266;SDS011;38223;50.940;4.034;2022-08-25T03:09:37;7.78;;;7.00;;
52266;SDS011;38223;50.940;4.034;2022-08-25T03:12:10;9.38;;;8.15;;
52266;SDS011;38223;50.940;4.034;2022-08-25T03:14:45;10.58;;;8.73;;
52266;SDS011;38223;50.940;4.034;2022-08-25T03:17:17;9.90;;;9.00;;
52266;SDS011;38223;50.940;4.034;2022-08-25T03:19:53;9.85;;;8.98;;
52266;SDS011;38223;50.940;4.034;2022-08-25T03:22:25;15.10;;;8.73;;
52266;SDS011;38223;50.940;4.034;2022-08-25T03:24:59;10.60;;;9.53;;
52266;SDS011;38223;50.940;4.034;2022-08-25T03:27:47;13.18;;;9.75;;
52266;SDS011;38223;50.940;4.034;2022-08-25T03:30:22;12.80;;;9.30;;
52266;SDS011;38223;50.940;4.034;2022-08-25T03:32:51;14.78;;;9.75;;
52266;SDS011;38223;50.940;4.034;2022-08-25T03:35:21;9.93;;;8.88;;
52266;SDS011;38223;50.940;4.034;2022-08-25T03:37:56;15.53;;;8.88;;
52266;SDS011;38223;50.940;4.034;2022-08-25T03:40:32;9.98;;;9.15;;
52266;SDS011;38223;50.940;4.034;2022-08-25T03:43:00;12.03;;;8.85;;
52266;SDS011;38223;50.940;4.034;2022-08-25T03:45:38;9.85;;;8.90;;
52266;SDS011;38223;50.940;4.034;2022-08-25T03:48:09;9.03;;;8.00;;
52266;SDS011;38223;50.940;4.034;2022-08-25T03:50:45;8.75;;;7.90;;
52266;SDS011;38223;50.940;4.034;2022-08-25T03:53:21;9.23;;;8.33;;
52266;SDS011;38223;50.940;4.034;2022-08-25T03:55:55;9.15;;;8.35;;
52266;SDS011;38223;50.940;4.034;2022-08-25T03:58:28;9.60;;;8.35;;
52266;SDS011;38223;50.940;4.034;2022-08-25T04:01:00;9.10;;;8.40;;
52266;SDS011;38223;50.940;4.034;2022-08-25T04:03:31;10.60;;;9.70;;
52266;SDS011;38223;50.940;4.034;2022-08-25T04:06:05;11.53;;;10.48;;
52266;SDS011;38223;50.940;4.034;2022-08-25T04:08:39;10.90;;;10.13;;
52266;SDS011;38223;50.940;4.034;2022-08-25T04:11:18;11.40;;;10.35;;
52266;SDS011;38223;50.940;4.034;2022-08-25T04:13:51;13.35;;;10.53;;
52266;SDS011;38223;50.940;4.034;2022-08-25T04:16:32;10.88;;;9.98;;
52266;SDS011;38223;50.940;4.034;2022-08-25T04:21:35;10.65;;;9.70;;
52266;SDS011;38223;50.940;4.034;2022-08-25T04:24:13;13.08;;;9.78;;
52266;SDS011;38223;50.940;4.034;2022-08-25T04:26:45;14.58;;;10.03;;
52266;SDS011;38223;50.940;4.034;2022-08-25T04:29:20;13.20;;;10.90;;
52266;SDS011;38223;50.940;4.034;2022-08-25T04:31:54;11.08;;;10.10;;
52266;SDS011;38223;50.940;4.034;2022-08-25T04:34:24;11.20;;;10.20;;
52266;SDS011;38223;50.940;4.034;2022-08-25T04:36:59;12.30;;;9.78;;
52266;SDS011;38223;50.940;4.034;2022-08-25T04:39:30;11.45;;;9.65;;
52266;SDS011;38223;50.940;4.034;2022-08-25T04:42:01;10.65;;;9.45;;
52266;SDS011;38223;50.940;4.034;2022-08-25T04:44:39;12.05;;;10.93;;
52266;SDS011;38223;50.940;4.034;2022-08-25T04:47:09;11.93;;;10.85;;
52266;SDS011;38223;50.940;4.034;2022-08-25T04:49:43;12.95;;;10.90;;
52266;SDS011;38223;50.940;4.034;2022-08-25T04:52:12;11.75;;;10.75;;
52266;SDS011;38223;50.940;4.034;2022-08-25T04:54:47;11.70;;;10.58;;
52266;SDS011;38223;50.940;4.034;2022-08-25T04:57:17;12.65;;;10.43;;
52266;SDS011;38223;50.940;4.034;2022-08-25T04:59:49;12.18;;;10.75;;
52266;SDS011;38223;50.940;4.034;2022-08-25T05:02:18;11.15;;;10.25;;
52266;SDS011;38223;50.940;4.034;2022-08-25T05:04:55;11.00;;;10.13;;
52266;SDS011;38223;50.940;4.034;2022-08-25T05:07:23;11.83;;;10.65;;
52266;SDS011;38223;50.940;4.034;2022-08-25T05:09:57;15.83;;;10.38;;
52266;SDS011;38223;50.940;4.034;2022-08-25T05:12:30;12.63;;;10.38;;
52266;SDS011;38223;50.940;4.034;2022-08-25T05:15:02;11.25;;;10.05;;
52266;SDS011;38223;50.940;4.034;2022-08-25T05:17:35;11.90;;;10.65;;
52266;SDS011;38223;50.940;4.034;2022-08-25T05:20:09;11.75;;;10.60;;
52266;SDS011;38223;50.940;4.034;2022-08-25T05:22:42;15.48;;;10.70;;
52266;SDS011;38223;50.940;4.034;2022-08-25T05:25:45;14.30;;;9.70;;
52266;SDS011;38223;50.940;4.034;2022-08-25T05:28:19;13.85;;;9.63;;
52266;SDS011;38223;50.940;4.034;2022-08-25T05:30:56;14.87;;;9.08;;
52266;SDS011;38223;50.940;4.034;2022-08-25T05:33:23;12.45;;;9.83;;
52266;SDS011;38223;50.940;4.034;2022-08-25T05:35:55;20.27;;;10.05;;
52266;SDS011;38223;50.940;4.034;2022-08-25T05:38:26;12.40;;;9.48;;
52266;SDS011;38223;50.940;4.034;2022-08-25T05:40:59;13.75;;;9.35;;
52266;SDS011;38223;50.940;4.034;2022-08-25T05:43:36;14.85;;;9.13;;
52266;SDS011;38223;50.940;4.034;2022-08-25T05:46:12;14.83;;;9.33;;
52266;SDS011;38223;50.940;4.034;2022-08-25T05:48:42;9.58;;;8.10;;
52266;SDS011;38223;50.940;4.034;2022-08-25T05:51:14;15.28;;;8.90;;
52266;SDS011;38223;50.940;4.034;2022-08-25T05:53:48;18.07;;;9.10;;
52266;SDS011;38223;50.940;4.034;2022-08-25T05:56:22;26.00;;;9.35;;
52266;SDS011;38223;50.940;4.034;2022-08-25T05:58:51;24.12;;;9.73;;
52266;SDS011;38223;50.940;4.034;2022-08-25T06:01:26;21.73;;;8.58;;
52266;SDS011;38223;50.940;4.034;2022-08-25T06:04:19;38.55;;;10.53;;
52266;SDS011;38223;50.940;4.034;2022-08-25T06:06:49;22.62;;;8.73;;
52266;SDS011;38223;50.940;4.034;2022-08-25T06:09:28;17.70;;;8.55;;
52266;SDS011;38223;50.940;4.034;2022-08-25T06:11:57;19.20;;;7.72;;
52266;SDS011;38223;50.940;4.034;2022-08-25T06:14:31;15.03;;;8.13;;
52266;SDS011;38223;50.940;4.034;2022-08-25T06:17:05;15.48;;;8.75;;
52266;SDS011;38223;50.940;4.034;2022-08-25T06:19:43;13.95;;;7.70;;
52266;SDS011;38223;50.940;4.034;2022-08-25T06:22:15;13.40;;;8.10;;
52266;SDS011;38223;50.940;4.034;2022-08-25T06:24:46;11.97;;;7.10;;
52266;SDS011;38223;50.940;4.034;2022-08-25T06:27:17;10.60;;;7.17;;
52266;SDS011;38223;50.940;4.034;2022-08-25T06:29:52;15.08;;;7.50;;
52266;SDS011;38223;50.940;4.034;2022-08-25T06:32:24;24.02;;;7.47;;
52266;SDS011;38223;50.940;4.034;2022-08-25T06:42:31;20.02;;;7.15;;
52266;SDS011;38223;50.940;4.034;2022-08-25T06:45:02;23.30;;;7.58;;
52266;SDS011;38223;50.940;4.034;2022-08-25T06:47:36;18.62;;;6.75;;
52266;SDS011;38223;50.940;4.034;2022-08-25T06:50:09;16.05;;;6.47;;
52266;SDS011;38223;50.940;4.034;2022-08-25T06:52:39;12.68;;;6.62;;
52266;SDS011;38223;50.940;4.034;2022-08-25T06:55:10;13.20;;;6.20;;
52266;SDS011;38223;50.940;4.034;2022-08-25T06:57:37;9.05;;;5.70;;
52266;SDS011;38223;50.940;4.034;2022-08-25T07:20:00;7.90;;;5.33;;
52266;SDS011;38223;50.940;4.034;2022-08-25T07:22:32;12.25;;;5.15;;
52266;SDS011;38223;50.940;4.034;2022-08-25T07:25:10;9.28;;;4.95;;
52266;SDS011;38223;50.940;4.034;2022-08-25T07:27:42;11.90;;;4.83;;
52266;SDS011;38223;50.940;4.034;2022-08-25T07:30:12;11.28;;;5.08;;
52266;SDS011;38223;50.940;4.034;2022-08-25T07:32:41;14.58;;;4.80;;
52266;SDS011;38223;50.940;4.034;2022-08-25T07:35:16;20.17;;;5.03;;
52266;SDS011;38223;50.940;4.034;2022-08-25T07:37:49;13.50;;;4.65;;
52266;SDS011;38223;50.940;4.034;2022-08-25T07:40:30;17.37;;;5.15;;
52266;SDS011;38223;50.940;4.034;2022-08-25T07:43:06;10.82;;;5.12;;
52266;SDS011;38223;50.940;4.034;2022-08-25T07:45:38;15.83;;;4.67;;
52266;SDS011;38223;50.940;4.034;2022-08-25T07:48:11;7.95;;;4.03;;
52266;SDS011;38223;50.940;4.034;2022-08-25T07:50:46;10.90;;;3.87;;
52266;SDS011;38223;50.940;4.034;2022-08-25T07:53:17;10.65;;;4.17;;
52266;SDS011;38223;50.940;4.034;2022-08-25T07:55:47;10.45;;;3.75;;
52266;SDS011;38223;50.940;4.034;2022-08-25T07:58:19;9.48;;;3.52;;
52266;SDS011;38223;50.940;4.034;2022-08-25T08:00:55;9.48;;;3.60;;
52266;SDS011;38223;50.940;4.034;2022-08-25T08:03:28;21.07;;;4.20;;
52266;SDS011;38223;50.940;4.034;2022-08-25T08:06:06;10.53;;;3.70;;
52266;SDS011;38223;50.940;4.034;2022-08-25T08:08:39;7.15;;;3.42;;
52266;SDS011;38223;50.940;4.034;2022-08-25T08:11:19;6.33;;;3.45;;
52266;SDS011;38223;50.940;4.034;2022-08-25T08:13:51;9.53;;;3.83;;
52266;SDS011;38223;50.940;4.034;2022-08-25T08:16:25;9.33;;;3.35;;
52266;SDS011;38223;50.940;4.034;2022-08-25T08:19:00;4.97;;;3.20;;
52266;SDS011;38223;50.940;4.034;2022-08-25T08:21:33;8.78;;;2.90;;
52266;SDS011;38223;50.940;4.034;2022-08-25T08:24:07;9.83;;;3.55;;
52266;SDS011;38223;50.940;4.034;2022-08-25T08:26:43;10.48;;;3.02;;
52266;SDS011;38223;50.940;4.034;2022-08-25T08:29:15;11.70;;;3.30;;
52266;SDS011;38223;50.940;4.034;2022-08-25T08:31:48;6.95;;;2.47;;
52266;SDS011;38223;50.940;4.034;2022-08-25T08:34:18;4.90;;;2.60;;
52266;SDS011;38223;50.940;4.034;2022-08-25T08:37:08;7.47;;;3.10;;
52266;SDS011;38223;50.940;4.034;2022-08-25T08:39:40;6.10;;;2.65;;
52266;SDS011;38223;50.940;4.034;2022-08-25T08:44:57;14.05;;;3.60;;
52266;SDS011;38223;50.940;4.034;2022-08-25T08:47:41;8.05;;;2.80;;
52266;SDS011;38223;50.940;4.034;2022-08-25T08:55:53;11.48;;;3.40;;
52266;SDS011;38223;50.940;4.034;2022-08-25T08:58:30;5.30;;;2.52;;
52266;SDS011;38223;50.940;4.034;2022-08-25T09:01:09;13.13;;;3.10;;
52266;SDS011;38223;50.940;4.034;2022-08-25T09:03:43;6.05;;;2.65;;
52266;SDS011;38223;50.940;4.034;2022-08-25T09:09:06;6.03;;;2.25;;
52266;SDS011;38223;50.940;4.034;2022-08-25T09:14:33;6.47;;;2.45;;
52266;SDS011;38223;50.940;4.034;2022-08-25T09:17:10;7.35;;;2.95;;
52266;SDS011;38223;50.940;4.034;2022-08-25T09:20:07;9.83;;;3.05;;
52266;SDS011;38223;50.940;4.034;2022-08-25T09:31:04;12.23;;;3.00;;
52266;SDS011;38223;50.940;4.034;2022-08-25T09:33:39;8.38;;;2.67;;
52266;SDS011;38223;50.940;4.034;2022-08-25T09:36:10;8.73;;;2.62;;
52266;SDS011;38223;50.940;4.034;2022-08-25T09:38:43;3.67;;;2.45;;
52266;SDS011;38223;50.940;4.034;2022-08-25T09:41:16;6.97;;;2.55;;
52266;SDS011;38223;50.940;4.034;2022-08-25T09:43:52;5.90;;;2.22;;
52266;SDS011;38223;50.940;4.034;2022-08-25T09:46:41;8.73;;;2.72;;
52266;SDS011;38223;50.940;4.034;2022-08-25T09:49:13;7.08;;;2.80;;
52266;SDS011;38223;50.940;4.034;2022-08-25T09:51:44;7.03;;;2.22;;
52266;SDS011;38223;50.940;4.034;2022-08-25T09:54:20;7.58;;;2.20;;
52266;SDS011;38223;50.940;4.034;2022-08-25T09:56:52;7.37;;;2.15;;
52266;SDS011;38223;50.940;4.034;2022-08-25T09:59:28;11.10;;;2.60;;
52266;SDS011;38223;50.940;4.034;2022-08-25T10:02:05;10.80;;;2.60;;
52266;SDS011;38223;50.940;4.034;2022-08-25T10:04:50;9.98;;;2.92;;
52266;SDS011;38223;50.940;4.034;2022-08-25T10:07:35;6.70;;;2.33;;
52266;SDS011;38223;50.940;4.034;2022-08-25T10:10:15;5.92;;;2.37;;
52266;SDS011;38223;50.940;4.034;2022-08-25T10:12:46;9.00;;;2.27;;
52266;SDS011;38223;50.940;4.034;2022-08-25T10:15:15;13.05;;;2.25;;
52266;SDS011;38223;50.940;4.034;2022-08-25T10:17:48;5.53;;;2.27;;
52266;SDS011;38223;50.940;4.034;2022-08-25T10:20:25;7.58;;;2.17;;
52266;SDS011;38223;50.940;4.034;2022-08-25T10:23:12;4.40;;;2.45;;
52266;SDS011;38223;50.940;4.034;2022-08-25T10:25:45;7.20;;;2.15;;
52266;SDS011;38223;50.940;4.034;2022-08-25T10:39:25;22.00;;;3.35;;
52266;SDS011;38223;50.940;4.034;2022-08-25T10:42:09;5.12;;;1.80;;
52266;SDS011;38223;50.940;4.034;2022-08-25T10:44:49;17.12;;;2.40;;
52266;SDS011;38223;50.940;4.034;2022-08-25T10:50:43;5.85;;;1.62;;
52266;SDS011;38223;50.940;4.034;2022-08-25T10:53:27;10.03;;;1.92;;
52266;SDS011;38223;50.940;4.034;2022-08-25T10:56:05;4.83;;;1.70;;
52266;SDS011;38223;50.940;4.034;2022-08-25T11:07:26;9.43;;;1.62;;
52266;SDS011;38223;50.940;4.034;2022-08-25T11:10:04;8.23;;;1.92;;
52266;SDS011;38223;50.940;4.034;2022-08-25T11:12:44;5.08;;;1.30;;
52266;SDS011;38223;50.940;4.034;2022-08-25T11:15:26;3.75;;;1.57;;
52266;SDS011;38223;50.940;4.034;2022-08-25T11:18:04;4.42;;;1.77;;
52266;SDS011;38223;50.940;4.034;2022-08-25T11:20:42;5.42;;;2.10;;
52266;SDS011;38223;50.940;4.034;2022-08-25T11:23:14;5.05;;;1.82;;
52266;SDS011;38223;50.940;4.034;2022-08-25T11:25:46;5.50;;;1.90;;
52266;SDS011;38223;50.940;4.034;2022-08-25T11:31:24;10.53;;;3.10;;
52266;SDS011;38223;50.940;4.034;2022-08-25T11:34:07;8.93;;;1.80;;
52266;SDS011;38223;50.940;4.034;2022-08-25T11:36:42;4.83;;;1.42;;
52266;SDS011;38223;50.940;4.034;2022-08-25T11:45:33;5.85;;;1.70;;
52266;SDS011;38223;50.940;4.034;2022-08-25T11:59:00;5.85;;;1.70;;
52266;SDS011;38223;50.940;4.034;2022-08-25T12:04:53;2.90;;;1.65;;
52266;SDS011;38223;50.940;4.034;2022-08-25T12:12:38;6.90;;;1.90;;
52266;SDS011;38223;50.940;4.034;2022-08-25T12:18:52;4.22;;;2.05;;
52266;SDS011;38223;50.940;4.034;2022-08-25T12:23:33;4.45;;;2.12;;
52266;SDS011;38223;50.940;4.034;2022-08-25T12:26:10;3.02;;;1.70;;
52266;SDS011;38223;50.940;4.034;2022-08-25T12:31:41;2.12;;;1.65;;
52266;SDS011;38223;50.940;4.034;2022-08-25T12:37:23;10.70;;;2.10;;
52266;SDS011;38223;50.940;4.034;2022-08-25T12:39:58;5.33;;;1.60;;
52266;SDS011;38223;50.940;4.034;2022-08-25T12:42:36;3.98;;;1.77;;
52266;SDS011;38223;50.940;4.034;2022-08-25T12:45:11;4.58;;;1.40;;
52266;SDS011;38223;50.940;4.034;2022-08-25T12:47:40;19.25;;;2.70;;
52266;SDS011;38223;50.940;4.034;2022-08-25T12:56:00;7.67;;;2.60;;
52266;SDS011;38223;50.940;4.034;2022-08-25T13:13:07;10.28;;;6.97;;
52266;SDS011;38223;50.940;4.034;2022-08-25T13:16:00;14.00;;;6.90;;
52266;SDS011;38223;50.940;4.034;2022-08-25T13:18:34;13.08;;;6.83;;
52266;SDS011;38223;50.940;4.034;2022-08-25T13:21:20;11.70;;;6.22;;
52266;SDS011;38223;50.940;4.034;2022-08-25T13:24:06;6.80;;;5.22;;
52266;SDS011;38223;50.940;4.034;2022-08-25T13:26:38;11.50;;;5.45;;
52266;SDS011;38223;50.940;4.034;2022-08-25T13:29:12;10.30;;;4.97;;
52266;SDS011;38223;50.940;4.034;2022-08-25T13:31:53;11.45;;;6.03;;
52266;SDS011;38223;50.940;4.034;2022-08-25T13:34:34;6.58;;;4.60;;
52266;SDS011;38223;50.940;4.034;2022-08-25T13:37:09;8.28;;;5.25;;
52266;SDS011;38223;50.940;4.034;2022-08-25T13:40:11;10.00;;;5.33;;
52266;SDS011;38223;50.940;4.034;2022-08-25T13:42:48;9.43;;;5.15;;
52266;SDS011;38223;50.940;4.034;2022-08-25T13:45:24;11.50;;;6.08;;
52266;SDS011;38223;50.940;4.034;2022-08-25T13:47:56;7.22;;;5.15;;
52266;SDS011;38223;50.940;4.034;2022-08-25T13:53:24;11.68;;;5.90;;
52266;SDS011;38223;50.940;4.034;2022-08-25T13:55:56;13.65;;;6.08;;
52266;SDS011;38223;50.940;4.034;2022-08-25T13:58:28;8.73;;;5.25;;
52266;SDS011;38223;50.940;4.034;2022-08-25T14:01:14;10.90;;;5.28;;
52266;SDS011;38223;50.940;4.034;2022-08-25T14:03:46;11.12;;;6.78;;
52266;SDS011;38223;50.940;4.034;2022-08-25T14:06:22;11.83;;;6.90;;
52266;SDS011;38223;50.940;4.034;2022-08-25T14:11:40;18.20;;;12.50;;
52266;SDS011;38223;50.940;4.034;2022-08-25T14:14:30;19.98;;;14.90;;
52266;SDS011;38223;50.940;4.034;2022-08-25T14:19:36;16.32;;;12.47;;
52266;SDS011;38223;50.940;4.034;2022-08-25T14:22:11;17.32;;;12.53;;
52266;SDS011;38223;50.940;4.034;2022-08-25T14:24:43;13.78;;;12.45;;
52266;SDS011;38223;50.940;4.034;2022-08-25T14:27:13;17.85;;;13.08;;
52266;SDS011;38223;50.940;4.034;2022-08-25T14:29:43;13.25;;;11.85;;
52266;SDS011;38223;50.940;4.034;2022-08-25T14:32:22;15.05;;;13.30;;
52266;SDS011;38223;50.940;4.034;2022-08-25T14:34:53;16.62;;;14.13;;
52266;SDS011;38223;50.940;4.034;2022-08-25T14:37:24;16.60;;;14.85;;
52266;SDS011;38223;50.940;4.034;2022-08-25T14:39:57;15.70;;;13.50;;
52266;SDS011;38223;50.940;4.034;2022-08-25T14:42:28;19.77;;;17.10;;
52266;SDS011;38223;50.940;4.034;2022-08-25T14:45:00;18.85;;;16.30;;
52266;SDS011;38223;50.940;4.034;2022-08-25T14:47:31;18.05;;;15.90;;
52266;SDS011;38223;50.940;4.034;2022-08-25T14:50:06;21.48;;;16.67;;
52266;SDS011;38223;50.940;4.034;2022-08-25T14:52:42;17.73;;;14.68;;
52266;SDS011;38223;50.940;4.034;2022-08-25T14:55:17;17.10;;;15.58;;
52266;SDS011;38223;50.940;4.034;2022-08-25T14:57:51;16.02;;;14.45;;
52266;SDS011;38223;50.940;4.034;2022-08-25T15:00:24;19.87;;;14.78;;
52266;SDS011;38223;50.940;4.034;2022-08-25T15:02:56;15.93;;;14.47;;
52266;SDS011;38223;50.940;4.034;2022-08-25T15:05:27;19.12;;;17.17;;
52266;SDS011;38223;50.940;4.034;2022-08-25T15:07:59;21.68;;;19.62;;
52266;SDS011;38223;50.940;4.034;2022-08-25T15:10:45;27.02;;;19.05;;
52266;SDS011;38223;50.940;4.034;2022-08-25T15:13:21;27.85;;;20.15;;
52266;SDS011;38223;50.940;4.034;2022-08-25T15:15:52;23.77;;;17.75;;
52266;SDS011;38223;50.940;4.034;2022-08-25T15:18:26;19.42;;;17.45;;
52266;SDS011;38223;50.940;4.034;2022-08-25T15:20:56;21.57;;;16.77;;
52266;SDS011;38223;50.940;4.034;2022-08-25T15:25:56;21.02;;;17.82;;
52266;SDS011;38223;50.940;4.034;2022-08-25T15:28:28;25.37;;;15.80;;
52266;SDS011;38223;50.940;4.034;2022-08-25T15:31:01;25.80;;;14.50;;
52266;SDS011;38223;50.940;4.034;2022-08-25T15:33:32;19.57;;;14.68;;
52266;SDS011;38223;50.940;4.034;2022-08-25T15:36:11;22.82;;;16.02;;
52266;SDS011;38223;50.940;4.034;2022-08-25T15:38:45;18.60;;;15.15;;
52266;SDS011;38223;50.940;4.034;2022-08-25T15:41:17;26.73;;;14.10;;
52266;SDS011;38223;50.940;4.034;2022-08-25T15:43:49;20.77;;;12.10;;
52266;SDS011;38223;50.940;4.034;2022-08-25T15:46:21;23.07;;;11.50;;
52266;SDS011;38223;50.940;4.034;2022-08-25T15:48:57;18.77;;;11.70;;
52266;SDS011;38223;50.940;4.034;2022-08-25T15:51:29;27.07;;;11.90;;
52266;SDS011;38223;50.940;4.034;2022-08-25T15:54:03;21.27;;;12.10;;
52266;SDS011;38223;50.940;4.034;2022-08-25T15:56:32;16.93;;;11.35;;
52266;SDS011;38223;50.940;4.034;2022-08-25T15:59:07;26.02;;;13.70;;
52266;SDS011;38223;50.940;4.034;2022-08-25T16:01:34;17.85;;;10.98;;
52266;SDS011;38223;50.940;4.034;2022-08-25T16:04:09;20.92;;;11.80;;
52266;SDS011;38223;50.940;4.034;2022-08-25T16:06:43;18.77;;;10.28;;
52266;SDS011;38223;50.940;4.034;2022-08-25T16:09:20;21.62;;;10.72;;
52266;SDS011;38223;50.940;4.034;2022-08-25T16:11:55;23.90;;;11.38;;
52266;SDS011;38223;50.940;4.034;2022-08-25T16:14:26;21.07;;;11.50;;
52266;SDS011;38223;50.940;4.034;2022-08-25T16:16:58;24.67;;;11.95;;
52266;SDS011;38223;50.940;4.034;2022-08-25T16:21:59;29.32;;;12.80;;
52266;SDS011;38223;50.940;4.034;2022-08-25T16:24:31;21.60;;;12.93;;
52266;SDS011;38223;50.940;4.034;2022-08-25T16:27:08;20.48;;;12.00;;
52266;SDS011;38223;50.940;4.034;2022-08-25T16:29:42;20.92;;;11.93;;
52266;SDS011;38223;50.940;4.034;2022-08-25T16:32:12;22.52;;;12.75;;
52266;SDS011;38223;50.940;4.034;2022-08-25T16:34:45;19.85;;;12.68;;
52266;SDS011;38223;50.940;4.034;2022-08-25T16:37:16;15.68;;;12.15;;
52266;SDS011;38223;50.940;4.034;2022-08-25T16:39:53;20.85;;;12.18;;
52266;SDS011;38223;50.940;4.034;2022-08-25T16:42:27;18.90;;;11.33;;
52266;SDS011;38223;50.940;4.034;2022-08-25T16:44:57;18.52;;;10.80;;
52266;SDS011;38223;50.940;4.034;2022-08-25T16:47:30;17.27;;;10.00;;
52266;SDS011;38223;50.940;4.034;2022-08-25T16:50:08;17.50;;;11.18;;
52266;SDS011;38223;50.940;4.034;2022-08-25T16:52:38;16.40;;;12.10;;
52266;SDS011;38223;50.940;4.034;2022-08-25T16:55:24;18.55;;;12.47;;
52266;SDS011;38223;50.940;4.034;2022-08-25T16:57:57;19.37;;;13.53;;
52266;SDS011;38223;50.940;4.034;2022-08-25T17:00:31;19.42;;;13.05;;
52266;SDS011;38223;50.940;4.034;2022-08-25T17:03:07;19.32;;;14.07;;
52266;SDS011;38223;50.940;4.034;2022-08-25T17:05:41;17.30;;;14.28;;
52266;SDS011;38223;50.940;4.034;2022-08-25T17:08:13;18.12;;;16.12;;
52266;SDS011;38223;50.940;4.034;2022-08-25T17:13:42;22.73;;;17.55;;
52266;SDS011;38223;50.940;4.034;2022-08-25T17:16:17;21.20;;;17.32;;
52266;SDS011;38223;50.940;4.034;2022-08-25T17:18:53;21.33;;;17.17;;
52266;SDS011;38223;50.940;4.034;2022-08-25T17:21:26;21.02;;;17.23;;
52266;SDS011;38223;50.940;4.034;2022-08-25T17:24:02;22.25;;;16.23;;
52266;SDS011;38223;50.940;4.034;2022-08-25T17:26:36;22.98;;;15.35;;
52266;SDS011;38223;50.940;4.034;2022-08-25T17:29:11;18.82;;;16.90;;
52266;SDS011;38223;50.940;4.034;2022-08-25T17:31:46;22.27;;;16.00;;
52266;SDS011;38223;50.940;4.034;2022-08-25T17:34:18;17.57;;;15.03;;
52266;SDS011;38223;50.940;4.034;2022-08-25T17:36:47;18.45;;;15.55;;
52266;SDS011;38223;50.940;4.034;2022-08-25T17:39:21;25.12;;;15.08;;
52266;SDS011;38223;50.940;4.034;2022-08-25T17:41:52;21.30;;;13.65;;
52266;SDS011;38223;50.940;4.034;2022-08-25T17:44:25;24.65;;;14.28;;
52266;SDS011;38223;50.940;4.034;2022-08-25T17:46:55;21.05;;;12.90;;
52266;SDS011;38223;50.940;4.034;2022-08-25T17:49:25;22.35;;;11.90;;
52266;SDS011;38223;50.940;4.034;2022-08-25T17:51:56;21.68;;;11.00;;